createdAt,value
2023-06-07T00:02:33.017Z,100.00
2023-06-07T00:05:40.367Z,100.00
2023-06-07T00:08:44.818Z,100.00
2023-06-07T00:11:47.213Z,100.00
2023-06-07T00:14:49.601Z,100.00
2023-06-07T00:17:52.181Z,100.00
2023-06-07T00:20:54.930Z,100.00
2023-06-07T00:23:57.339Z,100.00
2023-06-07T00:26:59.753Z,100.00
2023-06-07T00:30:05.034Z,100.00
2023-06-07T00:33:08.538Z,100.00
2023-06-07T00:36:10.970Z,100.00
2023-06-07T00:39:13.455Z,100.00
2023-06-07T00:42:16.055Z,100.00
2023-06-07T00:45:18.546Z,100.00
2023-06-07T00:48:21.186Z,100.00
2023-06-07T00:51:24.090Z,100.00
2023-06-07T00:54:28.235Z,100.00
2023-06-07T00:57:33.898Z,100.00
2023-06-07T01:00:36.617Z,100.00
2023-06-07T01:03:39.290Z,100.00
2023-06-07T01:06:41.810Z,100.00
2023-06-07T01:09:44.808Z,100.00
2023-06-07T01:12:50.714Z,100.00
2023-06-07T01:15:53.401Z,100.00
2023-06-07T01:18:57.763Z,100.00
2023-06-07T01:22:08.238Z,100.00
2023-06-07T01:25:10.965Z,100.00
2023-06-07T01:28:15.631Z,100.00
2023-06-07T01:31:18.926Z,100.00
2023-06-07T01:34:21.620Z,100.00
2023-06-07T01:37:26.011Z,100.00
2023-06-07T01:40:31.417Z,100.00
2023-06-07T01:43:35.097Z,100.00
2023-06-07T01:46:38.709Z,100.00
2023-06-07T01:49:41.172Z,100.00
2023-06-07T01:52:43.571Z,100.00
2023-06-07T01:55:46.107Z,100.00
2023-06-07T01:59:04.402Z,100.00
2023-06-07T02:02:09.730Z,100.00
2023-06-07T02:05:21.473Z,100.00
2023-06-07T02:08:39.035Z,100.00
2023-06-07T02:11:43.477Z,100.00
2023-06-07T02:14:47.212Z,100.00
2023-06-07T02:18:02.385Z,100.00
2023-06-07T02:21:05.198Z,100.00
2023-06-07T02:24:08.235Z,100.00
2023-06-07T02:27:10.792Z,100.00
2023-06-07T02:30:14.560Z,100.00
2023-06-07T02:33:17.303Z,100.00
2023-06-07T02:36:23.361Z,100.00
2023-06-07T02:39:25.812Z,100.00
2023-06-07T02:42:28.649Z,100.00
2023-06-07T02:45:32.337Z,100.00
2023-06-07T02:48:34.741Z,100.00
2023-06-07T02:51:38.615Z,100.00
2023-06-07T02:54:42.521Z,100.00
2023-06-07T02:57:45.275Z,100.00
2023-06-07T03:00:49.866Z,100.00
2023-06-07T03:03:53.020Z,100.00
2023-06-07T03:06:56.840Z,100.00
2023-06-07T03:10:06.995Z,100.00
2023-06-07T03:13:09.822Z,100.00
2023-06-07T03:16:13.660Z,100.00
2023-06-07T03:19:25.757Z,100.00
2023-06-07T03:22:30.266Z,100.00
2023-06-07T03:25:32.848Z,100.00
2023-06-07T03:28:35.863Z,100.00
2023-06-07T03:31:40.111Z,100.00
2023-06-07T03:34:46.662Z,100.00
2023-06-07T03:37:49.726Z,100.00
2023-06-07T03:40:57.760Z,100.00
2023-06-07T03:44:02.284Z,100.00
2023-06-07T03:47:06.129Z,100.00
2023-06-07T03:50:09.183Z,100.00
2023-06-07T03:53:13.693Z,100.00
2023-06-07T03:56:18.679Z,100.00
2023-06-07T03:59:22.013Z,100.00
2023-06-07T04:02:24.868Z,100.00
2023-06-07T04:05:27.383Z,100.00
2023-06-07T04:08:31.054Z,100.00
2023-06-07T04:11:33.574Z,100.00
2023-06-07T04:14:36.211Z,100.00
2023-06-07T04:17:38.765Z,100.00
2023-06-07T04:20:42.726Z,100.00
2023-06-07T04:23:47.767Z,100.00
2023-06-07T04:26:57.028Z,100.00
2023-06-07T04:30:03.182Z,100.00
2023-06-07T04:33:11.788Z,100.00
2023-06-07T04:36:20.121Z,100.00
2023-06-07T04:39:23.217Z,100.00
2023-06-07T04:42:28.522Z,100.00
2023-06-07T04:45:42.495Z,100.00
2023-06-07T04:48:47.195Z,100.00
2023-06-07T04:51:51.911Z,100.00
2023-06-07T04:54:58.075Z,100.00
2023-06-07T04:58:05.766Z,100.00
2023-06-07T05:01:12.441Z,100.00
2023-06-07T05:04:18.003Z,100.00
2023-06-07T05:07:27.893Z,100.00
2023-06-07T05:10:31.929Z,100.00
2023-06-07T05:13:37.107Z,100.00
2023-06-07T05:16:42.456Z,100.00
2023-06-07T05:19:46.397Z,100.00
2023-06-07T05:22:49.337Z,100.00
2023-06-07T05:25:52.368Z,100.00
2023-06-07T05:28:54.969Z,100.00
2023-06-07T05:31:58.088Z,100.00
2023-06-07T05:35:01.227Z,100.00
2023-06-07T05:38:04.974Z,100.00
2023-06-07T05:41:08.973Z,100.00
2023-06-07T05:44:11.473Z,100.00
2023-06-07T05:47:14.586Z,97.02
2023-06-07T05:50:20.495Z,99.40
2023-06-07T05:53:24.566Z,99.49
2023-06-07T05:56:28.960Z,99.39
2023-06-07T05:59:31.631Z,99.28
2023-06-07T06:02:35.948Z,99.42
2023-06-07T06:05:38.414Z,99.45
2023-06-07T06:08:40.812Z,97.73
2023-06-07T06:11:43.294Z,97.04
2023-06-07T06:14:45.688Z,97.42
2023-06-07T06:17:50.950Z,98.06
2023-06-07T06:20:53.408Z,96.27
2023-06-07T06:23:55.833Z,96.77
2023-06-07T06:26:58.220Z,99.42
2023-06-07T06:30:00.661Z,98.48
2023-06-07T06:33:03.421Z,94.32
2023-06-07T06:36:05.897Z,93.78
2023-06-07T06:39:09.338Z,95.80
2023-06-07T06:42:11.851Z,92.74
2023-06-07T06:45:43.950Z,95.03
2023-06-07T06:48:55.793Z,95.89
2023-06-07T06:52:05.885Z,96.31
2023-06-07T06:55:08.797Z,92.33
2023-06-07T06:58:11.409Z,93.57
2023-06-07T07:01:18.155Z,96.66
2023-06-07T07:04:20.718Z,93.32
2023-06-07T07:07:23.176Z,94.07
2023-06-07T07:10:25.692Z,93.89
2023-06-07T07:13:28.134Z,93.90
2023-06-07T07:16:32.165Z,92.88
2023-06-07T07:19:34.581Z,94.35
2023-06-07T07:22:36.933Z,93.01
2023-06-07T07:25:39.939Z,90.91
2023-06-07T07:28:42.420Z,88.49
2023-06-07T07:31:44.999Z,87.75
2023-06-07T07:34:47.475Z,89.03
2023-06-07T07:37:50.604Z,85.88
2023-06-07T07:40:52.994Z,86.64
2023-06-07T07:43:58.375Z,82.73
2023-06-07T07:47:01.317Z,84.89
2023-06-07T07:50:06.203Z,85.52
2023-06-07T07:53:08.971Z,88.13
2023-06-07T07:56:11.433Z,88.65
2023-06-07T07:59:13.896Z,88.23
2023-06-07T08:02:16.577Z,87.08
2023-06-07T08:05:18.988Z,88.48
2023-06-07T08:08:22.107Z,92.14
2023-06-07T08:11:25.664Z,86.75
2023-06-07T08:14:28.187Z,86.88
2023-06-07T08:17:32.034Z,88.73
2023-06-07T08:20:34.607Z,89.17
2023-06-07T08:23:37.586Z,89.86
2023-06-07T08:26:40.030Z,87.73
2023-06-07T08:29:42.429Z,88.97
2023-06-07T08:32:46.558Z,89.60
2023-06-07T08:35:48.979Z,90.87
2023-06-07T08:38:51.389Z,89.54
2023-06-07T08:41:53.997Z,88.10
2023-06-07T08:44:56.427Z,89.58
2023-06-07T08:48:05.885Z,91.08
2023-06-07T08:51:10.112Z,89.82
2023-06-07T08:54:17.004Z,88.06
2023-06-07T08:57:20.125Z,88.76
2023-06-07T09:00:26.813Z,90.59
2023-06-07T09:03:29.733Z,90.17
2023-06-07T09:06:35.605Z,90.16
2023-06-07T09:09:41.269Z,87.60
2023-06-07T09:12:46.718Z,86.09
2023-06-07T09:15:50.588Z,84.50
2023-06-07T09:18:56.616Z,84.38
2023-06-07T09:21:59.182Z,85.04
2023-06-07T09:25:07.978Z,84.58
2023-06-07T09:28:12.500Z,83.60
2023-06-07T09:31:30.580Z,84.97
2023-06-07T09:34:33.121Z,88.12
2023-06-07T09:37:45.724Z,89.74
2023-06-07T09:40:52.450Z,89.31
2023-06-07T09:43:57.809Z,90.10
2023-06-07T09:47:04.473Z,87.43
2023-06-07T09:50:08.978Z,88.50
2023-06-07T09:53:11.539Z,86.30
2023-06-07T09:56:22.790Z,86.71
2023-06-07T09:59:25.482Z,85.36
2023-06-07T10:02:29.971Z,83.24
2023-06-07T10:05:32.437Z,83.12
2023-06-07T10:08:38.337Z,79.19
2023-06-07T10:11:47.008Z,77.26
2023-06-07T10:14:50.127Z,79.66
2023-06-07T10:17:58.782Z,76.32
2023-06-07T10:21:12.490Z,72.53
2023-06-07T10:24:21.901Z,71.51
2023-06-07T10:27:28.097Z,75.29
2023-06-07T10:30:33.573Z,71.80
2023-06-07T10:33:37.130Z,64.33
2023-06-07T10:36:40.840Z,67.44
2023-06-07T10:39:43.324Z,64.01
2023-06-07T10:42:47.970Z,66.05
2023-06-07T10:46:26.413Z,59.05
2023-06-07T10:49:38.225Z,57.18
2023-06-07T10:52:56.441Z,51.52
2023-06-07T10:56:27.980Z,54.95
2023-06-07T10:59:30.690Z,49.13
2023-06-07T11:02:33.441Z,52.63
2023-06-07T11:05:54.636Z,46.54
2023-06-07T11:09:20.526Z,51.50
2023-06-07T11:12:45.998Z,55.02
2023-06-07T11:15:48.676Z,54.06
2023-06-07T11:18:55.755Z,52.14
2023-06-07T11:22:05.633Z,56.13
2023-06-07T11:25:14.958Z,60.00
2023-06-07T11:28:22.312Z,62.95
2023-06-07T11:31:24.743Z,62.78
2023-06-07T11:34:30.413Z,57.99
2023-06-07T11:37:32.940Z,60.48
2023-06-07T11:40:35.988Z,61.91
2023-06-07T11:43:38.546Z,59.99
2023-06-07T11:46:41.059Z,62.47
2023-06-07T11:49:43.482Z,63.46
2023-06-07T11:52:48.054Z,65.65
2023-06-07T11:55:50.835Z,66.70
2023-06-07T11:58:53.202Z,68.06
2023-06-07T12:01:56.711Z,68.08
2023-06-07T12:04:59.549Z,69.80
2023-06-07T12:08:07.255Z,70.65
2023-06-07T12:11:09.681Z,73.13
2023-06-07T12:14:13.086Z,70.71
2023-06-07T12:17:15.554Z,70.89
2023-06-07T12:20:18.036Z,71.72
2023-06-07T12:23:21.758Z,71.37
2023-06-07T12:26:32.357Z,70.70
2023-06-07T12:29:35.155Z,69.53
2023-06-07T12:32:37.922Z,66.44
2023-06-07T12:35:40.757Z,62.72
2023-06-07T12:38:44.294Z,61.43
2023-06-07T12:41:46.631Z,62.17
2023-06-07T12:44:50.141Z,64.97
2023-06-07T12:47:52.966Z,63.90
2023-06-07T12:50:55.427Z,64.61
2023-06-07T12:53:57.885Z,65.80
2023-06-07T12:57:00.273Z,66.60
2023-06-07T13:00:03.278Z,64.73
2023-06-07T13:03:06.077Z,68.24
2023-06-07T13:06:09.052Z,65.59
2023-06-07T13:09:12.391Z,66.72
2023-06-07T13:12:16.246Z,67.03
2023-06-07T13:15:19.080Z,65.43
2023-06-07T13:18:21.771Z,68.00
2023-06-07T13:21:24.424Z,67.40
2023-06-07T13:24:26.896Z,66.39
2023-06-07T13:27:29.297Z,67.84
2023-06-07T13:30:32.744Z,65.41
2023-06-07T13:33:35.192Z,65.56
2023-06-07T13:36:38.018Z,64.25
2023-06-07T13:39:40.709Z,65.57
2023-06-07T13:42:43.097Z,62.71
2023-06-07T13:45:46.656Z,63.42
2023-06-07T13:48:49.462Z,63.43
2023-06-07T13:51:51.882Z,61.89
2023-06-07T13:54:55.854Z,62.12
2023-06-07T13:57:58.322Z,64.87
2023-06-07T14:01:04.033Z,61.80
2023-06-07T14:04:07.349Z,64.29
2023-06-07T14:07:09.817Z,65.42
2023-06-07T14:10:13.039Z,65.55
2023-06-07T14:13:16.055Z,65.91
2023-06-07T14:16:20.491Z,64.38
2023-06-07T14:19:22.989Z,65.23
2023-06-07T14:22:25.849Z,65.67
2023-06-07T14:25:28.256Z,66.12
2023-06-07T14:28:30.681Z,67.55
2023-06-07T14:31:33.261Z,67.92
2023-06-07T14:34:35.737Z,67.77
2023-06-07T14:37:38.170Z,67.77
2023-06-07T14:40:40.628Z,67.26
2023-06-07T14:43:43.149Z,68.02
2023-06-07T14:46:45.668Z,67.21
2023-06-07T14:49:48.146Z,66.51
2023-06-07T14:52:50.591Z,68.12
2023-06-07T14:55:53.047Z,70.62
2023-06-07T14:58:55.489Z,70.05
2023-06-07T15:01:57.954Z,68.18
2023-06-07T15:05:01.175Z,70.38
2023-06-07T15:08:06.134Z,68.62
2023-06-07T15:11:08.632Z,70.57
2023-06-07T15:14:11.293Z,71.69
2023-06-07T15:17:13.799Z,71.13
2023-06-07T15:20:16.267Z,71.57
2023-06-07T15:23:18.763Z,69.14
2023-06-07T15:26:22.051Z,69.75
2023-06-07T15:29:24.630Z,70.94
2023-06-07T15:32:27.097Z,65.66
2023-06-07T15:35:29.562Z,66.83
2023-06-07T15:38:38.313Z,67.64
2023-06-07T15:41:40.846Z,66.68
2023-06-07T15:44:45.972Z,68.63
2023-06-07T15:48:02.270Z,67.48
2023-06-07T15:51:04.798Z,66.58
2023-06-07T15:54:07.235Z,68.48
2023-06-07T15:57:09.753Z,69.19
2023-06-07T16:00:27.373Z,70.19
2023-06-07T16:03:50.767Z,68.84
2023-06-07T16:06:57.301Z,69.64
2023-06-07T16:09:59.828Z,71.09
2023-06-07T16:13:02.310Z,71.25
2023-06-07T16:16:04.966Z,73.74
2023-06-07T16:19:07.508Z,71.09
2023-06-07T16:22:10.177Z,72.09
2023-06-07T16:25:12.859Z,72.28
2023-06-07T16:28:16.859Z,72.74
2023-06-07T16:31:19.458Z,74.15
2023-06-07T16:34:21.907Z,75.47
2023-06-07T16:37:24.326Z,75.02
2023-06-07T16:40:26.871Z,73.47
2023-06-07T16:43:29.345Z,74.36
2023-06-07T16:46:32.224Z,74.64
2023-06-07T16:49:34.788Z,74.85
2023-06-07T16:52:37.184Z,74.64
2023-06-07T16:55:39.656Z,75.46
2023-06-07T16:58:42.098Z,76.19
2023-06-07T17:01:44.559Z,76.75
2023-06-07T17:04:47.171Z,77.93
2023-06-07T17:07:51.343Z,79.08
2023-06-07T17:10:53.786Z,79.69
2023-06-07T17:13:56.592Z,79.33
2023-06-07T17:16:59.022Z,80.88
2023-06-07T17:20:01.736Z,80.09
2023-06-07T17:23:04.233Z,79.64
2023-06-07T17:26:07.889Z,79.41
2023-06-07T17:29:27.438Z,80.65
2023-06-07T17:32:31.838Z,80.90
2023-06-07T17:35:34.403Z,80.20
2023-06-07T17:38:36.917Z,80.98
2023-06-07T17:41:40.469Z,80.16
2023-06-07T17:44:42.966Z,81.25
2023-06-07T17:47:51.742Z,80.18
2023-06-07T17:50:54.500Z,79.88
2023-06-07T17:53:57.013Z,78.02
2023-06-07T17:56:59.494Z,79.24
2023-06-07T18:00:01.965Z,72.64
2023-06-07T18:03:07.096Z,73.18
2023-06-07T18:06:09.687Z,73.66
2023-06-07T18:09:12.150Z,74.75
2023-06-07T18:12:15.525Z,75.03
2023-06-07T18:15:18.008Z,75.88
2023-06-07T18:18:20.948Z,77.95
2023-06-07T18:21:23.376Z,78.57
2023-06-07T18:24:25.895Z,79.18
2023-06-07T18:27:29.329Z,79.06
2023-06-07T18:30:32.535Z,78.11
2023-06-07T18:33:36.748Z,79.10
2023-06-07T18:36:39.247Z,79.30
2023-06-07T18:39:41.717Z,79.70
2023-06-07T18:42:44.248Z,80.91
2023-06-07T18:45:48.867Z,79.79
2023-06-07T18:48:51.680Z,78.92
2023-06-07T18:51:55.037Z,79.73
2023-06-07T18:54:57.646Z,83.05
2023-06-07T18:58:00.115Z,83.22
2023-06-07T19:01:02.615Z,82.59
2023-06-07T19:04:05.150Z,83.87
2023-06-07T19:07:07.846Z,84.89
2023-06-07T19:10:10.820Z,84.48
2023-06-07T19:13:14.544Z,85.52
2023-06-07T19:16:17.330Z,84.63
2023-06-07T19:19:19.823Z,86.40
2023-06-07T19:22:22.293Z,88.45
2023-06-07T19:25:25.764Z,87.85
2023-06-07T19:28:28.290Z,88.58
2023-06-07T19:31:30.852Z,90.38
2023-06-07T19:34:34.095Z,91.02
2023-06-07T19:37:36.590Z,91.62
2023-06-07T19:40:39.036Z,91.34
2023-06-07T19:43:41.915Z,92.37
2023-06-07T19:46:44.462Z,92.29
2023-06-07T19:49:47.446Z,91.90
2023-06-07T19:52:49.974Z,92.09
2023-06-07T19:55:52.444Z,92.75
2023-06-07T19:58:54.943Z,92.25
2023-06-07T20:01:58.720Z,90.95
2023-06-07T20:05:01.203Z,91.25
2023-06-07T20:08:03.872Z,91.80
2023-06-07T20:11:06.319Z,88.97
2023-06-07T20:14:10.651Z,89.57
2023-06-07T20:17:13.760Z,90.14
2023-06-07T20:20:16.702Z,91.00
2023-06-07T20:23:19.174Z,90.98
2023-06-07T20:26:21.643Z,91.99
2023-06-07T20:29:24.073Z,91.96
2023-06-07T20:32:26.826Z,93.02
2023-06-07T20:35:32.371Z,94.35
2023-06-07T20:38:35.056Z,94.83
2023-06-07T20:41:37.451Z,95.49
2023-06-07T20:44:52.052Z,95.32
2023-06-07T20:47:55.707Z,96.17
2023-06-07T20:50:58.366Z,95.67
2023-06-07T20:54:01.052Z,96.01
2023-06-07T20:57:03.578Z,96.34
2023-06-07T21:00:07.026Z,96.57
2023-06-07T21:03:11.940Z,97.58
2023-06-07T21:06:14.928Z,97.13
2023-06-07T21:09:17.404Z,97.70
2023-06-07T21:12:19.851Z,98.55
2023-06-07T21:15:22.258Z,98.26
2023-06-07T21:18:25.066Z,99.10
2023-06-07T21:21:27.591Z,99.45
2023-06-07T21:24:30.006Z,99.89
2023-06-07T21:27:32.402Z,100.00
2023-06-07T21:30:34.890Z,100.00
2023-06-07T21:33:37.335Z,100.00
2023-06-07T21:36:39.832Z,100.00
2023-06-07T21:39:42.208Z,100.00
2023-06-07T21:42:44.580Z,100.00
2023-06-07T21:45:46.981Z,100.00
2023-06-07T21:48:49.455Z,100.00
2023-06-07T21:51:52.093Z,100.00
2023-06-07T21:54:54.506Z,100.00
2023-06-07T21:57:56.937Z,100.00
2023-06-07T22:00:59.415Z,100.00
2023-06-07T22:04:01.838Z,100.00
2023-06-07T22:07:04.339Z,100.00
2023-06-07T22:10:07.366Z,100.00
2023-06-07T22:13:10.032Z,100.00
2023-06-07T22:16:13.813Z,100.00
2023-06-07T22:19:19.897Z,100.00
2023-06-07T22:22:25.555Z,100.00
2023-06-07T22:25:40.282Z,100.00
2023-06-07T22:28:43.675Z,100.00
2023-06-07T22:31:46.208Z,100.00
2023-06-07T22:34:50.238Z,100.00
2023-06-07T22:37:52.797Z,100.00
2023-06-07T22:40:55.836Z,100.00
2023-06-07T22:43:58.973Z,100.00
2023-06-07T22:47:01.405Z,100.00
2023-06-07T22:50:04.486Z,100.00
2023-06-07T22:53:15.427Z,100.00
2023-06-07T22:56:17.959Z,100.00
2023-06-07T22:59:20.678Z,100.00
2023-06-07T23:02:23.153Z,100.00
2023-06-07T23:05:28.319Z,100.00
2023-06-07T23:08:33.874Z,100.00
2023-06-07T23:11:36.309Z,100.00
2023-06-07T23:14:38.750Z,100.00
2023-06-07T23:17:42.557Z,100.00
2023-06-07T23:20:46.473Z,100.00
2023-06-07T23:23:51.238Z,100.00
2023-06-07T23:26:56.424Z,100.00
2023-06-07T23:29:58.929Z,100.00
2023-06-07T23:33:01.433Z,100.00
2023-06-07T23:36:04.369Z,100.00
2023-06-07T23:39:06.775Z,100.00
2023-06-07T23:42:09.212Z,100.00
2023-06-07T23:45:12.457Z,100.00
2023-06-07T23:48:15.077Z,100.00
2023-06-07T23:51:17.660Z,100.00
2023-06-07T23:54:22.359Z,100.00
2023-06-07T23:57:24.826Z,100.00
